KTKI

McKinney National Airport

Dallas, Texas, USA
METAR KTKI 191153Z 00000KT 10SM CLR 23/22 A2996 RMK AO2 SLP138 T02330222 10261 20228 53007
Observed Flight Rules
Sep-19 @ 11:53 UTC (an hour ago) Visual Flight Rules
Visibility Clouds
10 miles
  • Clear skies
Temperatures Readings
Current 23°C / 73°F
Dewpoint 22°C / 72°F
Humidity 94%
Altimeter 29.96" Hg
Pressure 1013.8 hPa
Elevation 179
METAR KTKI 191153Z 00000KT 10SM CLR 23/22 A2996 RMK AO2 SLP138 T02330222 10261 20228 53007
Observed Flight Rules
Sep-19 @ 11:53 UTC
(an hour ago)
VFR
Clouds
  • Clear skies
Temperature Dewpoint
23°C / 73°F 22°C / 72°F
Humidity Altimeter Pressure
94% 29.96" Hg 1013.8 hPa